sensor_id;sensor_type;location;lat;lon;timestamp;pressure;altitude;pressure_sealevel;temperature;humidity
10518;BME280;5307;42.548;22.968;2023-02-11T00:00:30;95425.91;;;-4.41;76.71
10518;BME280;5307;42.548;22.968;2023-02-11T00:02:57;95417.28;;;-4.38;76.86
10518;BME280;5307;42.548;22.968;2023-02-11T00:05:25;95408.03;;;-4.23;76.49
10518;BME280;5307;42.548;22.968;2023-02-11T00:07:52;95411.34;;;-4.35;76.34
10518;BME280;5307;42.548;22.968;2023-02-11T00:10:19;95417.91;;;-4.41;76.39
10518;BME280;5307;42.548;22.968;2023-02-11T00:12:45;95420.56;;;-4.58;76.92
10518;BME280;5307;42.548;22.968;2023-02-11T00:15:12;95417.59;;;-4.57;77.32
10518;BME280;5307;42.548;22.968;2023-02-11T00:17:39;95417.25;;;-4.72;77.71
10518;BME280;5307;42.548;22.968;2023-02-11T00:20:06;95410.69;;;-4.66;77.91
10518;BME280;5307;42.548;22.968;2023-02-11T00:22:34;95414.94;;;-4.57;77.90
10518;BME280;5307;42.548;22.968;2023-02-11T00:25:11;95411.81;;;-4.50;77.58
10518;BME280;5307;42.548;22.968;2023-02-11T00:27:43;95405.97;;;-4.69;77.81
10518;BME280;5307;42.548;22.968;2023-02-11T00:30:11;95410.03;;;-4.81;77.69
10518;BME280;5307;42.548;22.968;2023-02-11T00:32:38;95410.34;;;-4.82;77.72
10518;BME280;5307;42.548;22.968;2023-02-11T00:35:07;95419.09;;;-4.99;78.36
10518;BME280;5307;42.548;22.968;2023-02-11T00:37:37;95417.72;;;-4.79;78.36
10518;BME280;5307;42.548;22.968;2023-02-11T00:40:05;95415.97;;;-4.84;78.38
10518;BME280;5307;42.548;22.968;2023-02-11T00:42:32;95421.00;;;-4.82;78.15
10518;BME280;5307;42.548;22.968;2023-02-11T00:45:07;95415.53;;;-4.77;78.07
10518;BME280;5307;42.548;22.968;2023-02-11T00:47:35;95409.97;;;-5.15;78.47
10518;BME280;5307;42.548;22.968;2023-02-11T00:50:02;95416.06;;;-5.15;78.74
10518;BME280;5307;42.548;22.968;2023-02-11T00:52:32;95405.41;;;-5.15;79.32
10518;BME280;5307;42.548;22.968;2023-02-11T00:55:01;95415.13;;;-5.10;78.66
10518;BME280;5307;42.548;22.968;2023-02-11T00:57:28;95417.63;;;-5.14;78.81
10518;BME280;5307;42.548;22.968;2023-02-11T00:59:56;95393.97;;;-5.15;78.73
10518;BME280;5307;42.548;22.968;2023-02-11T01:02:27;95408.25;;;-5.11;78.97
10518;BME280;5307;42.548;22.968;2023-02-11T01:04:57;95396.44;;;-5.27;78.46
10518;BME280;5307;42.548;22.968;2023-02-11T01:07:35;95405.56;;;-5.20;79.01
10518;BME280;5307;42.548;22.968;2023-02-11T01:10:03;95408.81;;;-5.23;79.46
10518;BME280;5307;42.548;22.968;2023-02-11T01:12:38;95407.28;;;-5.15;79.47
10518;BME280;5307;42.548;22.968;2023-02-11T01:15:07;95405.84;;;-5.21;79.67
10518;BME280;5307;42.548;22.968;2023-02-11T01:17:43;95400.53;;;-5.21;79.41
10518;BME280;5307;42.548;22.968;2023-02-11T01:20:18;95381.47;;;-5.54;79.62
10518;BME280;5307;42.548;22.968;2023-02-11T01:22:45;95401.34;;;-5.12;79.71
10518;BME280;5307;42.548;22.968;2023-02-11T01:25:13;95397.50;;;-5.37;79.63
10518;BME280;5307;42.548;22.968;2023-02-11T01:27:40;95397.75;;;-5.16;80.01
10518;BME280;5307;42.548;22.968;2023-02-11T01:30:09;95390.84;;;-5.17;80.15
10518;BME280;5307;42.548;22.968;2023-02-11T01:32:36;95377.88;;;-5.50;79.60
10518;BME280;5307;42.548;22.968;2023-02-11T01:35:04;95392.38;;;-5.33;79.58
10518;BME280;5307;42.548;22.968;2023-02-11T01:37:31;95378.47;;;-5.61;79.76
10518;BME280;5307;42.548;22.968;2023-02-11T01:40:00;95396.25;;;-5.40;79.90
10518;BME280;5307;42.548;22.968;2023-02-11T01:42:37;95389.50;;;-5.46;79.79
10518;BME280;5307;42.548;22.968;2023-02-11T01:48:15;95385.00;;;-5.76;80.40
10518;BME280;5307;42.548;22.968;2023-02-11T01:50:48;95369.97;;;-5.72;80.58
10518;BME280;5307;42.548;22.968;2023-02-11T01:53:31;95392.34;;;-5.73;80.43
10518;BME280;5307;42.548;22.968;2023-02-11T01:56:20;95387.72;;;-5.99;81.25
10518;BME280;5307;42.548;22.968;2023-02-11T01:59:12;95386.78;;;-5.94;81.59
10518;BME280;5307;42.548;22.968;2023-02-11T02:01:43;95372.59;;;-6.12;82.30
10518;BME280;5307;42.548;22.968;2023-02-11T02:04:26;95386.47;;;-5.92;82.07
10518;BME280;5307;42.548;22.968;2023-02-11T02:07:00;95385.59;;;-6.10;81.92
10518;BME280;5307;42.548;22.968;2023-02-11T02:09:37;95385.31;;;-5.69;82.13
10518;BME280;5307;42.548;22.968;2023-02-11T02:12:09;95381.91;;;-6.01;82.24
10518;BME280;5307;42.548;22.968;2023-02-11T02:14:39;95384.03;;;-6.11;82.33
10518;BME280;5307;42.548;22.968;2023-02-11T02:17:08;95386.03;;;-6.17;82.69
10518;BME280;5307;42.548;22.968;2023-02-11T02:20:23;95376.13;;;-6.25;82.29
10518;BME280;5307;42.548;22.968;2023-02-11T02:23:21;95378.16;;;-6.22;82.82
10518;BME280;5307;42.548;22.968;2023-02-11T02:26:37;95378.94;;;-6.21;82.67
10518;BME280;5307;42.548;22.968;2023-02-11T02:29:58;95380.31;;;-6.33;83.26
10518;BME280;5307;42.548;22.968;2023-02-11T02:32:43;95377.88;;;-6.20;83.26
10518;BME280;5307;42.548;22.968;2023-02-11T02:35:22;95379.50;;;-6.55;83.08
10518;BME280;5307;42.548;22.968;2023-02-11T02:37:56;95385.91;;;-6.34;83.24
10518;BME280;5307;42.548;22.968;2023-02-11T02:40:43;95381.19;;;-6.60;83.25
10518;BME280;5307;42.548;22.968;2023-02-11T02:43:15;95370.66;;;-6.87;84.44
10518;BME280;5307;42.548;22.968;2023-02-11T02:45:42;95377.47;;;-6.59;83.85
10518;BME280;5307;42.548;22.968;2023-02-11T02:48:27;95364.97;;;-6.58;84.37
10518;BME280;5307;42.548;22.968;2023-02-11T02:51:04;95382.78;;;-6.59;83.97
10518;BME280;5307;42.548;22.968;2023-02-11T02:53:57;95383.69;;;-6.18;83.80
10518;BME280;5307;42.548;22.968;2023-02-11T02:56:36;95392.56;;;-6.23;83.15
10518;BME280;5307;42.548;22.968;2023-02-11T02:59:21;95383.25;;;-6.56;83.07
10518;BME280;5307;42.548;22.968;2023-02-11T03:01:58;95391.22;;;-6.56;83.29
10518;BME280;5307;42.548;22.968;2023-02-11T03:04:36;95385.38;;;-6.45;83.69
10518;BME280;5307;42.548;22.968;2023-02-11T03:07:24;95376.63;;;-6.45;83.17
10518;BME280;5307;42.548;22.968;2023-02-11T03:09:59;95378.91;;;-6.52;83.19
10518;BME280;5307;42.548;22.968;2023-02-11T03:12:36;95388.69;;;-6.39;83.11
10518;BME280;5307;42.548;22.968;2023-02-11T03:15:07;95376.53;;;-6.54;82.58
10518;BME280;5307;42.548;22.968;2023-02-11T03:17:41;95379.50;;;-6.55;82.51
10518;BME280;5307;42.548;22.968;2023-02-11T03:20:13;95384.50;;;-6.54;82.18
10518;BME280;5307;42.548;22.968;2023-02-11T03:22:48;95385.16;;;-6.48;82.31
10518;BME280;5307;42.548;22.968;2023-02-11T03:25:16;95387.94;;;-6.53;82.34
10518;BME280;5307;42.548;22.968;2023-02-11T03:27:46;95384.44;;;-6.63;81.97
10518;BME280;5307;42.548;22.968;2023-02-11T03:30:20;95393.75;;;-6.74;82.86
10518;BME280;5307;42.548;22.968;2023-02-11T03:32:58;95391.53;;;-6.58;82.17
10518;BME280;5307;42.548;22.968;2023-02-11T03:35:37;95381.91;;;-6.68;82.30
10518;BME280;5307;42.548;22.968;2023-02-11T03:38:11;95381.22;;;-7.09;83.48
10518;BME280;5307;42.548;22.968;2023-02-11T03:40:50;95384.28;;;-6.80;83.45
10518;BME280;5307;42.548;22.968;2023-02-11T03:43:20;95384.50;;;-6.90;83.45
10518;BME280;5307;42.548;22.968;2023-02-11T03:45:55;95367.75;;;-6.77;83.83
10518;BME280;5307;42.548;22.968;2023-02-11T03:51:43;95381.59;;;-7.02;83.49
10518;BME280;5307;42.548;22.968;2023-02-11T03:54:14;95381.38;;;-6.92;83.28
10518;BME280;5307;42.548;22.968;2023-02-11T03:56:53;95372.44;;;-6.96;83.93
10518;BME280;5307;42.548;22.968;2023-02-11T03:59:48;95378.44;;;-7.04;84.28
10518;BME280;5307;42.548;22.968;2023-02-11T04:02:15;95375.31;;;-7.06;83.83
10518;BME280;5307;42.548;22.968;2023-02-11T04:04:46;95359.81;;;-7.40;84.02
10518;BME280;5307;42.548;22.968;2023-02-11T04:07:14;95375.13;;;-7.24;84.66
10518;BME280;5307;42.548;22.968;2023-02-11T04:09:50;95363.25;;;-6.90;83.84
10518;BME280;5307;42.548;22.968;2023-02-11T04:12:17;95366.00;;;-7.18;83.46
10518;BME280;5307;42.548;22.968;2023-02-11T04:14:47;95377.91;;;-7.29;84.32
10518;BME280;5307;42.548;22.968;2023-02-11T04:17:14;95369.16;;;-7.15;84.09
10518;BME280;5307;42.548;22.968;2023-02-11T04:19:56;95376.22;;;-7.25;83.81
10518;BME280;5307;42.548;22.968;2023-02-11T04:22:24;95365.72;;;-7.30;83.91
10518;BME280;5307;42.548;22.968;2023-02-11T04:24:51;95363.38;;;-7.31;84.25
10518;BME280;5307;42.548;22.968;2023-02-11T04:27:19;95366.03;;;-7.31;84.43
10518;BME280;5307;42.548;22.968;2023-02-11T04:29:46;95363.84;;;-7.29;83.71
10518;BME280;5307;42.548;22.968;2023-02-11T04:32:13;95369.94;;;-7.15;84.21
10518;BME280;5307;42.548;22.968;2023-02-11T04:34:40;95369.34;;;-7.26;83.70
10518;BME280;5307;42.548;22.968;2023-02-11T04:37:06;95355.28;;;-7.12;82.68
10518;BME280;5307;42.548;22.968;2023-02-11T04:39:35;95357.22;;;-7.18;82.58
10518;BME280;5307;42.548;22.968;2023-02-11T04:42:18;95367.06;;;-7.32;83.08
10518;BME280;5307;42.548;22.968;2023-02-11T04:44:45;95366.03;;;-7.31;84.06
10518;BME280;5307;42.548;22.968;2023-02-11T04:47:12;95361.19;;;-7.29;83.79
10518;BME280;5307;42.548;22.968;2023-02-11T04:49:40;95366.09;;;-7.23;84.00
10518;BME280;5307;42.548;22.968;2023-02-11T04:52:10;95366.41;;;-7.38;83.04
10518;BME280;5307;42.548;22.968;2023-02-11T04:54:41;95341.53;;;-7.28;83.62
10518;BME280;5307;42.548;22.968;2023-02-11T04:57:08;95363.16;;;-7.35;82.86
10518;BME280;5307;42.548;22.968;2023-02-11T04:59:35;95362.97;;;-7.52;83.62
10518;BME280;5307;42.548;22.968;2023-02-11T05:02:01;95362.38;;;-7.49;84.44
10518;BME280;5307;42.548;22.968;2023-02-11T05:04:28;95366.09;;;-7.36;83.70
10518;BME280;5307;42.548;22.968;2023-02-11T05:06:55;95356.47;;;-7.46;83.75
10518;BME280;5307;42.548;22.968;2023-02-11T05:09:22;95362.28;;;-7.30;83.40
10518;BME280;5307;42.548;22.968;2023-02-11T05:11:50;95353.44;;;-7.53;83.58
10518;BME280;5307;42.548;22.968;2023-02-11T05:14:18;95359.81;;;-7.40;83.43
10518;BME280;5307;42.548;22.968;2023-02-11T05:16:44;95361.88;;;-7.51;84.27
10518;BME280;5307;42.548;22.968;2023-02-11T05:19:11;95365.72;;;-7.71;84.57
10518;BME280;5307;42.548;22.968;2023-02-11T05:21:38;95359.84;;;-7.54;85.17
10518;BME280;5307;42.548;22.968;2023-02-11T05:24:07;95364.94;;;-7.58;84.30
10518;BME280;5307;42.548;22.968;2023-02-11T05:26:34;95355.13;;;-7.71;84.34
10518;BME280;5307;42.548;22.968;2023-02-11T05:29:02;95353.94;;;-7.51;84.47
10518;BME280;5307;42.548;22.968;2023-02-11T05:31:29;95355.91;;;-7.57;84.26
10518;BME280;5307;42.548;22.968;2023-02-11T05:33:57;95350.59;;;-7.43;84.54
10518;BME280;5307;42.548;22.968;2023-02-11T05:36:24;95362.69;;;-7.64;83.41
10518;BME280;5307;42.548;22.968;2023-02-11T05:38:50;95364.34;;;-7.82;84.62
10518;BME280;5307;42.548;22.968;2023-02-11T05:41:17;95357.38;;;-7.37;85.37
10518;BME280;5307;42.548;22.968;2023-02-11T05:43:46;95359.81;;;-7.82;85.09
10518;BME280;5307;42.548;22.968;2023-02-11T05:46:15;95362.78;;;-7.69;85.51
10518;BME280;5307;42.548;22.968;2023-02-11T05:48:42;95364.53;;;-7.51;84.61
10518;BME280;5307;42.548;22.968;2023-02-11T05:51:09;95367.97;;;-7.51;84.12
10518;BME280;5307;42.548;22.968;2023-02-11T05:53:36;95364.31;;;-7.13;84.12
10518;BME280;5307;42.548;22.968;2023-02-11T05:56:03;95374.00;;;-7.45;84.17
10518;BME280;5307;42.548;22.968;2023-02-11T05:58:31;95365.03;;;-7.35;83.95
10518;BME280;5307;42.548;22.968;2023-02-11T06:00:58;95365.63;;;-7.38;84.40
10518;BME280;5307;42.548;22.968;2023-02-11T06:03:26;95359.41;;;-7.34;83.95
10518;BME280;5307;42.548;22.968;2023-02-11T06:05:53;95362.59;;;-7.32;83.99
10518;BME280;5307;42.548;22.968;2023-02-11T06:08:20;95379.22;;;-7.04;83.47
10518;BME280;5307;42.548;22.968;2023-02-11T06:10:47;95377.41;;;-7.31;83.33
10518;BME280;5307;42.548;22.968;2023-02-11T06:13:13;95378.69;;;-7.14;83.72
10518;BME280;5307;42.548;22.968;2023-02-11T06:15:42;95372.59;;;-7.15;84.43
10518;BME280;5307;42.548;22.968;2023-02-11T06:18:09;95373.97;;;-7.18;83.95
10518;BME280;5307;42.548;22.968;2023-02-11T06:20:38;95370.19;;;-6.89;84.23
10518;BME280;5307;42.548;22.968;2023-02-11T06:23:06;95373.38;;;-7.14;83.93
10518;BME280;5307;42.548;22.968;2023-02-11T06:25:33;95363.81;;;-7.02;83.55
10518;BME280;5307;42.548;22.968;2023-02-11T06:27:59;95378.47;;;-6.68;84.27
10518;BME280;5307;42.548;22.968;2023-02-11T06:30:26;95370.75;;;-6.92;84.20
10518;BME280;5307;42.548;22.968;2023-02-11T06:32:53;95380.34;;;-6.69;84.14
10518;BME280;5307;42.548;22.968;2023-02-11T06:35:20;95384.47;;;-6.40;84.20
10518;BME280;5307;42.548;22.968;2023-02-11T06:37:48;95377.22;;;-6.26;83.27
10518;BME280;5307;42.548;22.968;2023-02-11T06:40:15;95381.44;;;-6.25;82.08
10518;BME280;5307;42.548;22.968;2023-02-11T06:42:41;95383.25;;;-6.12;82.25
10518;BME280;5307;42.548;22.968;2023-02-11T06:45:09;95377.78;;;-6.07;81.88
10518;BME280;5307;42.548;22.968;2023-02-11T06:47:38;95380.19;;;-6.28;82.39
10518;BME280;5307;42.548;22.968;2023-02-11T06:50:06;95379.88;;;-6.04;82.03
10518;BME280;5307;42.548;22.968;2023-02-11T06:52:33;95373.34;;;-5.89;81.77
10518;BME280;5307;42.548;22.968;2023-02-11T06:55:01;95363.34;;;-5.83;81.36
10518;BME280;5307;42.548;22.968;2023-02-11T06:57:29;95372.94;;;-5.34;80.52
10518;BME280;5307;42.548;22.968;2023-02-11T06:59:55;95382.97;;;-5.22;79.53
10518;BME280;5307;42.548;22.968;2023-02-11T07:02:22;95374.94;;;-5.48;79.16
10518;BME280;5307;42.548;22.968;2023-02-11T07:04:49;95366.25;;;-5.14;78.81
10518;BME280;5307;42.548;22.968;2023-02-11T07:07:16;95377.84;;;-5.19;78.91
10518;BME280;5307;42.548;22.968;2023-02-11T07:09:43;95383.38;;;-4.81;78.50
10518;BME280;5307;42.548;22.968;2023-02-11T07:12:11;95386.84;;;-4.89;77.54
10518;BME280;5307;42.548;22.968;2023-02-11T07:14:38;95376.81;;;-4.74;76.84
10518;BME280;5307;42.548;22.968;2023-02-11T07:17:07;95379.16;;;-4.82;76.23
10518;BME280;5307;42.548;22.968;2023-02-11T07:19:33;95375.88;;;-4.27;75.98
10518;BME280;5307;42.548;22.968;2023-02-11T07:22:00;95375.22;;;-3.98;74.99
10518;BME280;5307;42.548;22.968;2023-02-11T07:24:39;95366.13;;;-3.50;73.43
10518;BME280;5307;42.548;22.968;2023-02-11T07:27:06;95362.72;;;-3.68;71.14
10518;BME280;5307;42.548;22.968;2023-02-11T07:32:58;95363.16;;;-2.89;68.08
10518;BME280;5307;42.548;22.968;2023-02-11T07:35:25;95347.31;;;-2.74;67.24
10518;BME280;5307;42.548;22.968;2023-02-11T07:37:52;95354.16;;;-2.43;65.71
10518;BME280;5307;42.548;22.968;2023-02-11T07:40:18;95350.53;;;-2.38;65.85
10518;BME280;5307;42.548;22.968;2023-02-11T07:42:45;95345.44;;;-2.52;65.39
10518;BME280;5307;42.548;22.968;2023-02-11T07:45:12;95348.69;;;-1.93;64.12
10518;BME280;5307;42.548;22.968;2023-02-11T07:47:39;95343.69;;;-1.82;64.42
10518;BME280;5307;42.548;22.968;2023-02-11T07:50:09;95330.28;;;-1.94;62.97
10518;BME280;5307;42.548;22.968;2023-02-11T07:52:35;95338.38;;;-1.58;63.26
10518;BME280;5307;42.548;22.968;2023-02-11T07:55:02;95319.25;;;-0.43;61.50
10518;BME280;5307;42.548;22.968;2023-02-11T07:57:29;95324.06;;;-1.01;60.03
10518;BME280;5307;42.548;22.968;2023-02-11T07:59:56;95324.31;;;-0.41;57.92
10518;BME280;5307;42.548;22.968;2023-02-11T08:02:23;95322.50;;;-0.09;56.86
10518;BME280;5307;42.548;22.968;2023-02-11T08:04:50;95324.72;;;0.17;55.13
10518;BME280;5307;42.548;22.968;2023-02-11T08:07:18;95329.28;;;0.01;54.69
10518;BME280;5307;42.548;22.968;2023-02-11T08:09:45;95333.84;;;-0.56;56.19
10518;BME280;5307;42.548;22.968;2023-02-11T08:12:12;95330.31;;;0.87;53.43
10518;BME280;5307;42.548;22.968;2023-02-11T08:14:38;95324.56;;;-0.58;54.17
10518;BME280;5307;42.548;22.968;2023-02-11T08:17:05;95318.59;;;-0.92;55.48
10518;BME280;5307;42.548;22.968;2023-02-11T08:19:32;95335.91;;;-0.77;56.44
10518;BME280;5307;42.548;22.968;2023-02-11T08:21:59;95326.09;;;-0.17;55.03
10518;BME280;5307;42.548;22.968;2023-02-11T08:24:27;95316.44;;;1.20;54.63
10518;BME280;5307;42.548;22.968;2023-02-11T08:26:54;95318.22;;;-0.26;55.06
10518;BME280;5307;42.548;22.968;2023-02-11T08:29:21;95322.72;;;-0.14;57.70
10518;BME280;5307;42.548;22.968;2023-02-11T08:31:48;95320.72;;;0.11;55.91
10518;BME280;5307;42.548;22.968;2023-02-11T08:34:15;95317.53;;;1.35;53.62
10518;BME280;5307;42.548;22.968;2023-02-11T08:36:46;95307.91;;;1.92;51.37
10518;BME280;5307;42.548;22.968;2023-02-11T08:39:15;95308.75;;;1.96;51.31
10518;BME280;5307;42.548;22.968;2023-02-11T08:41:45;95313.38;;;1.76;51.05
10518;BME280;5307;42.548;22.968;2023-02-11T08:44:14;95316.81;;;1.03;52.70
10518;BME280;5307;42.548;22.968;2023-02-11T08:46:41;95312.03;;;1.66;52.32
10518;BME280;5307;42.548;22.968;2023-02-11T08:49:07;95303.13;;;2.47;51.18
10518;BME280;5307;42.548;22.968;2023-02-11T08:51:34;95313.78;;;2.85;49.64
10518;BME280;5307;42.548;22.968;2023-02-11T08:54:01;95312.25;;;1.77;49.24
10518;BME280;5307;42.548;22.968;2023-02-11T08:56:28;95315.09;;;1.84;50.81
10518;BME280;5307;42.548;22.968;2023-02-11T08:58:58;95307.91;;;1.92;49.95
10518;BME280;5307;42.548;22.968;2023-02-11T09:01:27;95310.38;;;2.88;46.96
10518;BME280;5307;42.548;22.968;2023-02-11T09:03:55;95306.06;;;2.38;48.12
10518;BME280;5307;42.548;22.968;2023-02-11T09:06:22;95304.16;;;2.61;45.59
10518;BME280;5307;42.548;22.968;2023-02-11T09:08:53;95297.28;;;2.90;46.06
10518;BME280;5307;42.548;22.968;2023-02-11T09:11:21;95283.38;;;1.97;45.86
10518;BME280;5307;42.548;22.968;2023-02-11T09:13:50;95301.09;;;2.86;43.73
10518;BME280;5307;42.548;22.968;2023-02-11T09:16:20;95282.94;;;4.40;43.18
10518;BME280;5307;42.548;22.968;2023-02-11T09:18:47;95270.00;;;3.52;41.12
10518;BME280;5307;42.548;22.968;2023-02-11T09:21:16;95276.13;;;4.53;40.08
10518;BME280;5307;42.548;22.968;2023-02-11T09:23:43;95275.13;;;5.34;37.50
10518;BME280;5307;42.548;22.968;2023-02-11T09:26:13;95278.56;;;4.25;40.06
10518;BME280;5307;42.548;22.968;2023-02-11T09:28:41;95278.63;;;3.65;38.46
10518;BME280;5307;42.548;22.968;2023-02-11T09:31:10;95268.41;;;4.55;38.68
10518;BME280;5307;42.548;22.968;2023-02-11T09:33:39;95259.22;;;4.23;37.62
10518;BME280;5307;42.548;22.968;2023-02-11T09:36:14;95268.38;;;4.11;39.44
10518;BME280;5307;42.548;22.968;2023-02-11T09:38:41;95261.97;;;3.93;36.22
10518;BME280;5307;42.548;22.968;2023-02-11T09:41:26;95245.13;;;3.69;37.44
10518;BME280;5307;42.548;22.968;2023-02-11T09:43:59;95252.69;;;4.27;39.67
10518;BME280;5307;42.548;22.968;2023-02-11T09:46:30;95238.31;;;6.13;38.94
10518;BME280;5307;42.548;22.968;2023-02-11T09:49:01;95242.59;;;5.23;36.60
10518;BME280;5307;42.548;22.968;2023-02-11T09:51:34;95235.81;;;4.41;36.05
10518;BME280;5307;42.548;22.968;2023-02-11T09:54:04;95242.69;;;3.57;38.62
10518;BME280;5307;42.548;22.968;2023-02-11T09:56:33;95232.66;;;4.80;37.79
10518;BME280;5307;42.548;22.968;2023-02-11T09:59:00;95228.81;;;4.88;37.04
10518;BME280;5307;42.548;22.968;2023-02-11T10:01:32;95221.22;;;5.91;36.38
10518;BME280;5307;42.548;22.968;2023-02-11T10:04:06;95219.06;;;4.72;37.33
10518;BME280;5307;42.548;22.968;2023-02-11T10:06:42;95211.00;;;5.59;36.80
10518;BME280;5307;42.548;22.968;2023-02-11T10:09:23;95210.28;;;5.73;36.69
10518;BME280;5307;42.548;22.968;2023-02-11T10:12:01;95194.28;;;5.36;35.68
10518;BME280;5307;42.548;22.968;2023-02-11T10:14:46;95195.28;;;4.48;35.62
10518;BME280;5307;42.548;22.968;2023-02-11T10:17:22;95185.06;;;5.51;34.47
10518;BME280;5307;42.548;22.968;2023-02-11T10:20:09;95181.69;;;4.37;35.33
10518;BME280;5307;42.548;22.968;2023-02-11T10:22:42;95183.78;;;4.10;36.05
10518;BME280;5307;42.548;22.968;2023-02-11T10:25:19;95179.22;;;4.69;34.43
10518;BME280;5307;42.548;22.968;2023-02-11T10:27:46;95168.59;;;5.05;34.54
10518;BME280;5307;42.548;22.968;2023-02-11T10:30:22;95158.50;;;6.46;33.95
10518;BME280;5307;42.548;22.968;2023-02-11T10:32:54;95156.41;;;5.50;35.66
10518;BME280;5307;42.548;22.968;2023-02-11T10:35:23;95154.50;;;5.51;34.95
10518;BME280;5307;42.548;22.968;2023-02-11T10:37:52;95134.00;;;4.73;35.83
10518;BME280;5307;42.548;22.968;2023-02-11T10:40:21;95138.25;;;5.65;36.59
10518;BME280;5307;42.548;22.968;2023-02-11T10:42:51;95117.63;;;5.21;33.85
10518;BME280;5307;42.548;22.968;2023-02-11T10:45:24;95124.41;;;6.20;32.61
10518;BME280;5307;42.548;22.968;2023-02-11T10:47:51;95118.59;;;6.07;31.73
10518;BME280;5307;42.548;22.968;2023-02-11T10:50:24;95107.81;;;4.92;30.82
10518;BME280;5307;42.548;22.968;2023-02-11T10:52:51;95107.19;;;5.34;32.11
10518;BME280;5307;42.548;22.968;2023-02-11T10:55:20;95101.53;;;6.28;31.58
10518;BME280;5307;42.548;22.968;2023-02-11T10:57:52;95085.13;;;5.28;31.20
10518;BME280;5307;42.548;22.968;2023-02-11T11:00:39;95088.84;;;4.85;31.75
10518;BME280;5307;42.548;22.968;2023-02-11T11:03:15;95084.41;;;6.81;32.32
10518;BME280;5307;42.548;22.968;2023-02-11T11:05:47;95088.19;;;5.13;32.22
10518;BME280;5307;42.548;22.968;2023-02-11T11:08:15;95091.41;;;5.54;32.97
10518;BME280;5307;42.548;22.968;2023-02-11T11:10:44;95087.94;;;6.57;33.45
10518;BME280;5307;42.548;22.968;2023-02-11T11:13:29;95086.34;;;5.49;33.64
10518;BME280;5307;42.548;22.968;2023-02-11T11:16:17;95082.16;;;6.01;33.74
10518;BME280;5307;42.548;22.968;2023-02-11T11:18:46;95078.50;;;5.08;33.64
10518;BME280;5307;42.548;22.968;2023-02-11T11:21:17;95076.34;;;6.28;34.14
10518;BME280;5307;42.548;22.968;2023-02-11T11:23:50;95069.56;;;5.00;34.27
10518;BME280;5307;42.548;22.968;2023-02-11T11:26:18;95066.69;;;6.23;33.63
10518;BME280;5307;42.548;22.968;2023-02-11T11:29:06;95063.88;;;5.41;34.27
10518;BME280;5307;42.548;22.968;2023-02-11T11:31:43;95062.41;;;6.29;35.63
10518;BME280;5307;42.548;22.968;2023-02-11T11:34:20;95062.38;;;6.50;35.32
10518;BME280;5307;42.548;22.968;2023-02-11T11:36:50;95058.06;;;5.28;34.91
10518;BME280;5307;42.548;22.968;2023-02-11T11:39:20;95047.59;;;5.34;34.27
10518;BME280;5307;42.548;22.968;2023-02-11T11:41:49;95050.66;;;5.18;34.62
10518;BME280;5307;42.548;22.968;2023-02-11T11:44:24;95053.47;;;5.86;36.57
10518;BME280;5307;42.548;22.968;2023-02-11T11:47:06;95053.88;;;5.81;36.32
10518;BME280;5307;42.548;22.968;2023-02-11T11:49:44;95046.88;;;5.37;34.74
10518;BME280;5307;42.548;22.968;2023-02-11T11:52:39;95048.78;;;5.44;35.08
10518;BME280;5307;42.548;22.968;2023-02-11T11:55:13;95039.09;;;5.32;36.94
10518;BME280;5307;42.548;22.968;2023-02-11T11:57:51;95044.13;;;5.26;34.23
10518;BME280;5307;42.548;22.968;2023-02-11T12:00:20;95036.78;;;5.34;34.68
10518;BME280;5307;42.548;22.968;2023-02-11T12:03:26;95025.09;;;5.01;34.69
10518;BME280;5307;42.548;22.968;2023-02-11T12:06:11;95017.44;;;5.43;32.73
10518;BME280;5307;42.548;22.968;2023-02-11T12:08:53;95016.66;;;5.31;33.60
10518;BME280;5307;42.548;22.968;2023-02-11T12:11:26;95015.91;;;5.56;35.33
10518;BME280;5307;42.548;22.968;2023-02-11T12:14:07;95020.19;;;5.64;36.03
10518;BME280;5307;42.548;22.968;2023-02-11T12:16:44;95017.72;;;4.91;34.50
10518;BME280;5307;42.548;22.968;2023-02-11T12:22:09;95007.00;;;5.41;35.90
10518;BME280;5307;42.548;22.968;2023-02-11T12:24:59;94996.50;;;5.11;34.75
10518;BME280;5307;42.548;22.968;2023-02-11T12:27:42;95000.00;;;5.08;34.98
10518;BME280;5307;42.548;22.968;2023-02-11T12:30:28;94990.38;;;5.50;37.33
10518;BME280;5307;42.548;22.968;2023-02-11T12:33:02;94983.81;;;5.65;36.38
10518;BME280;5307;42.548;22.968;2023-02-11T12:35:39;94976.41;;;5.83;35.20
10518;BME280;5307;42.548;22.968;2023-02-11T12:38:31;94969.34;;;4.75;35.91
10518;BME280;5307;42.548;22.968;2023-02-11T12:41:18;94983.00;;;5.61;35.73
10518;BME280;5307;42.548;22.968;2023-02-11T12:44:18;94981.41;;;5.03;34.76
10518;BME280;5307;42.548;22.968;2023-02-11T12:46:49;94967.84;;;5.03;35.53
10518;BME280;5307;42.548;22.968;2023-02-11T12:49:33;94975.22;;;5.17;32.77
10518;BME280;5307;42.548;22.968;2023-02-11T12:52:15;94971.78;;;5.27;35.14
10518;BME280;5307;42.548;22.968;2023-02-11T12:54:50;94968.59;;;4.79;34.50
10518;BME280;5307;42.548;22.968;2023-02-11T12:57:23;94967.47;;;4.94;35.98
10518;BME280;5307;42.548;22.968;2023-02-11T12:59:57;94966.00;;;5.35;35.88
10518;BME280;5307;42.548;22.968;2023-02-11T13:02:32;94954.75;;;5.09;35.05
10518;BME280;5307;42.548;22.968;2023-02-11T13:05:09;94972.50;;;5.06;33.44
10518;BME280;5307;42.548;22.968;2023-02-11T13:07:42;94961.72;;;5.31;34.69
10518;BME280;5307;42.548;22.968;2023-02-11T13:10:20;94959.00;;;5.49;38.00
10518;BME280;5307;42.548;22.968;2023-02-11T13:12:50;94960.97;;;5.52;34.17
10518;BME280;5307;42.548;22.968;2023-02-11T13:15:36;94956.28;;;5.34;33.63
10518;BME280;5307;42.548;22.968;2023-02-11T13:18:10;94946.25;;;5.56;33.46
10518;BME280;5307;42.548;22.968;2023-02-11T13:20:42;94942.38;;;5.22;35.88
10518;BME280;5307;42.548;22.968;2023-02-11T13:23:18;94939.66;;;5.11;34.62
10518;BME280;5307;42.548;22.968;2023-02-11T13:25:52;94935.31;;;4.74;34.27
10518;BME280;5307;42.548;22.968;2023-02-11T13:28:34;94937.63;;;4.72;34.91
10518;BME280;5307;42.548;22.968;2023-02-11T13:31:05;94938.44;;;4.84;34.21
10518;BME280;5307;42.548;22.968;2023-02-11T13:33:34;94933.03;;;4.91;34.62
10518;BME280;5307;42.548;22.968;2023-02-11T13:36:24;94940.00;;;4.99;34.62
10518;BME280;5307;42.548;22.968;2023-02-11T13:38:57;94943.88;;;4.94;35.43
10518;BME280;5307;42.548;22.968;2023-02-11T13:41:38;94940.00;;;4.85;36.83
10518;BME280;5307;42.548;22.968;2023-02-11T13:44:22;94945.31;;;4.63;37.38